Time;durP1;ratioP1;P1;durP2;ratioP2;P2;SDS_P1;SDS_P2;PMS_P1;PMS_P2;Temp;Humidity;BMP_temperature;BMP_pressure;BME280_temperature;BME280_humidity;BME280_pressure;Samples;Min_cycle;Max_cycle;Signal;HPM_P1;HPM_P2
2023/01/02 00:00:39;;;;;;;1999.90;999.90;;;;;;;;;;4956780;28;20290;-73
2023/01/02 00:03:07;;;;;;;1999.90;999.90;;;;;;;;;;4958500;28;20242;-73
2023/01/02 00:05:35;;;;;;;1999.90;999.90;;;;;;;;;;4963935;28;20235;-73
2023/01/02 00:08:04;;;;;;;1999.90;999.90;;;;;;;;;;4965207;28;20269;-74
2023/01/02 00:10:32;;;;;;;1999.90;999.90;;;;;;;;;;4961711;28;20760;-72
2023/01/02 00:13:01;;;;;;;1999.90;999.90;;;;;;;;;;4961796;28;20243;-73
2023/01/02 00:15:29;;;;;;;1999.90;999.90;;;;;;;;;;4976797;28;20326;-72
2023/01/02 00:17:57;;;;;;;1999.90;999.90;;;;;;;;;;4958314;28;20239;-72
2023/01/02 00:20:25;;;;;;;1999.90;999.90;;;;;;;;;;4961302;28;21047;-72
2023/01/02 00:22:52;;;;;;;1999.90;999.90;;;;;;;;;;4961445;28;20223;-72
2023/01/02 00:25:22;;;;;;;1999.90;999.90;;;;;;;;;;4959394;28;20242;-72
2023/01/02 00:27:50;;;;;;;1999.90;999.90;;;;;;;;;;4959508;28;20286;-73
2023/01/02 00:30:18;;;;;;;1999.90;999.90;;;;;;;;;;4963680;28;20279;-72
2023/01/02 00:32:46;;;;;;;1999.90;999.90;;;;;;;;;;4963703;28;20286;-72
2023/01/02 00:35:14;;;;;;;1999.90;999.90;;;;;;;;;;4938719;28;20240;-72
2023/01/02 00:37:42;;;;;;;1999.90;999.90;;;;;;;;;;4964269;28;20239;-72
2023/01/02 00:40:12;;;;;;;1999.90;999.90;;;;;;;;;;4958787;28;20311;-72
2023/01/02 00:42:42;;;;;;;1999.90;999.90;;;;;;;;;;4949181;28;20255;-72
2023/01/02 00:45:10;;;;;;;1999.90;999.90;;;;;;;;;;4964560;28;20254;-72
2023/01/02 00:47:39;;;;;;;1999.90;999.90;;;;;;;;;;4949494;28;20274;-72
2023/01/02 00:50:07;;;;;;;1999.90;999.90;;;;;;;;;;4964632;28;20310;-72
2023/01/02 00:52:35;;;;;;;1999.90;999.90;;;;;;;;;;4967124;28;20235;-72
2023/01/02 00:55:03;;;;;;;1999.90;999.90;;;;;;;;;;4946812;28;20746;-72
2023/01/02 00:57:31;;;;;;;1999.90;999.90;;;;;;;;;;4964887;28;21238;-72
2023/01/02 01:00:00;;;;;;;1999.90;999.90;;;;;;;;;;4966695;28;20243;-72
2023/01/02 01:02:28;;;;;;;1999.90;999.90;;;;;;;;;;4967410;28;20310;-72
2023/01/02 01:04:56;;;;;;;1999.90;999.90;;;;;;;;;;4962758;28;20507;-72
2023/01/02 01:07:24;;;;;;;1999.90;999.90;;;;;;;;;;4982126;28;20231;-72
2023/01/02 01:09:52;;;;;;;1999.90;999.90;;;;;;;;;;4966911;28;20231;-72
2023/01/02 01:12:20;;;;;;;1999.90;999.90;;;;;;;;;;4966161;28;20709;-72
2023/01/02 01:14:48;;;;;;;1999.90;999.90;;;;;;;;;;4965894;28;20607;-72
2023/01/02 01:17:18;;;;;;;1999.90;999.90;;;;;;;;;;4963717;28;20227;-72
2023/01/02 01:19:45;;;;;;;1999.90;999.90;;;;;;;;;;4964570;28;20246;-73
2023/01/02 01:22:13;;;;;;;1999.90;999.90;;;;;;;;;;4966826;28;20323;-72
2023/01/02 01:24:41;;;;;;;1999.90;999.90;;;;;;;;;;4950981;28;20231;-72
2023/01/02 01:27:09;;;;;;;1999.90;999.90;;;;;;;;;;4949855;28;20798;-72
2023/01/02 01:29:37;;;;;;;1999.90;999.90;;;;;;;;;;4966527;28;20676;-72
2023/01/02 01:32:05;;;;;;;1999.90;999.90;;;;;;;;;;4964408;28;20755;-72
2023/01/02 01:34:34;;;;;;;1999.90;999.90;;;;;;;;;;4962450;28;20431;-73
2023/01/02 01:37:02;;;;;;;1999.90;999.90;;;;;;;;;;4964403;28;20317;-73
2023/01/02 01:39:31;;;;;;;1999.90;999.90;;;;;;;;;;4967848;28;20319;-72
2023/01/02 01:41:59;;;;;;;1999.90;999.90;;;;;;;;;;4967063;28;20326;-73
2023/01/02 01:44:54;;;;;;;1999.90;999.90;;;;;;;;;;4961384;28;20318;-73
2023/01/02 01:47:32;;;;;;;1999.90;999.90;;;;;;;;;;4930731;28;20298;-73
2023/01/02 01:50:05;;;;;;;1999.90;999.90;;;;;;;;;;4963961;28;20739;-72
2023/01/02 01:52:34;;;;;;;1999.90;999.90;;;;;;;;;;4964722;28;20238;-73
2023/01/02 01:55:05;;;;;;;1999.90;999.90;;;;;;;;;;4962467;28;20709;-72
2023/01/02 01:57:36;;;;;;;1999.90;999.90;;;;;;;;;;4964154;28;20294;-72
2023/01/02 02:00:05;;;;;;;1999.90;999.90;;;;;;;;;;4964827;28;20237;-72
2023/01/02 02:02:33;;;;;;;1999.90;999.90;;;;;;;;;;4963986;28;20231;-73
2023/01/02 02:05:05;;;;;;;1999.90;999.90;;;;;;;;;;4963898;28;20266;-72
2023/01/02 02:07:34;;;;;;;1999.90;999.90;;;;;;;;;;4980259;28;20719;-72
2023/01/02 02:10:04;;;;;;;1999.90;999.90;;;;;;;;;;4966918;28;20250;-72
2023/01/02 02:12:33;;;;;;;1999.90;999.90;;;;;;;;;;4958318;28;20712;-72
2023/01/02 02:15:01;;;;;;;1999.90;999.90;;;;;;;;;;4964731;28;20241;-72
2023/01/02 02:17:35;;;;;;;1999.90;999.90;;;;;;;;;;4963793;28;21040;-72
2023/01/02 02:20:13;;;;;;;1999.90;999.90;;;;;;;;;;4960399;28;20231;-72
2023/01/02 02:23:01;;;;;;;1999.90;999.90;;;;;;;;;;4943447;28;20243;-72
2023/01/02 02:25:45;;;;;;;1999.90;999.90;;;;;;;;;;4958962;28;20231;-72
2023/01/02 02:28:27;;;;;;;1999.90;999.90;;;;;;;;;;4964476;28;20255;-72
2023/01/02 02:30:58;;;;;;;1999.90;999.90;;;;;;;;;;4950327;28;20227;-72
2023/01/02 02:33:33;;;;;;;1999.90;999.90;;;;;;;;;;4964410;28;20230;-72
2023/01/02 02:36:04;;;;;;;1999.90;999.90;;;;;;;;;;4948640;28;20794;-72
2023/01/02 02:38:46;;;;;;;1999.90;999.90;;;;;;;;;;4963316;28;20804;-72
2023/01/02 02:41:19;;;;;;;1999.90;999.90;;;;;;;;;;4965680;28;20235;-72
2023/01/02 02:43:50;;;;;;;1999.90;999.90;;;;;;;;;;4949861;28;20712;-72
2023/01/02 02:46:23;;;;;;;1999.90;999.90;;;;;;;;;;4963909;28;20246;-72
2023/01/02 02:48:55;;;;;;;1999.90;999.90;;;;;;;;;;4981035;28;20239;-72
2023/01/02 02:51:27;;;;;;;1999.90;999.90;;;;;;;;;;4962911;28;20239;-72
2023/01/02 02:53:59;;;;;;;1999.90;999.90;;;;;;;;;;4958523;28;20235;-72
2023/01/02 02:56:28;;;;;;;1999.90;999.90;;;;;;;;;;4957751;28;20322;-72
2023/01/02 02:58:56;;;;;;;1999.90;999.90;;;;;;;;;;4944739;28;20227;-72
2023/01/02 03:01:27;;;;;;;1999.90;999.90;;;;;;;;;;4961991;28;20338;-72
2023/01/02 03:03:58;;;;;;;1999.90;999.90;;;;;;;;;;4978978;28;20763;-72
2023/01/02 03:06:34;;;;;;;1999.90;999.90;;;;;;;;;;4952050;28;20808;-72
2023/01/02 03:09:17;;;;;;;1999.90;999.90;;;;;;;;;;4965536;28;20700;-73
2023/01/02 03:11:55;;;;;;;1999.90;999.90;;;;;;;;;;4964218;28;20243;-73
2023/01/02 03:14:30;;;;;;;1999.90;999.90;;;;;;;;;;4966232;28;20694;-72
2023/01/02 03:17:01;;;;;;;1999.90;999.90;;;;;;;;;;4962533;28;20294;-72
2023/01/02 03:19:32;;;;;;;1999.90;999.90;;;;;;;;;;4945324;28;20259;-72
2023/01/02 03:22:02;;;;;;;1999.90;999.90;;;;;;;;;;4963553;28;20330;-72
2023/01/02 03:24:30;;;;;;;1999.90;999.90;;;;;;;;;;4964756;28;20227;-72
2023/01/02 03:27:01;;;;;;;1999.90;999.90;;;;;;;;;;4964706;28;20227;-72
2023/01/02 03:29:33;;;;;;;1999.90;999.90;;;;;;;;;;4964943;28;20282;-73
2023/01/02 03:32:04;;;;;;;1999.90;999.90;;;;;;;;;;4949176;28;20775;-73
2023/01/02 03:34:34;;;;;;;1999.90;999.90;;;;;;;;;;4960398;28;20245;-73
2023/01/02 03:37:04;;;;;;;1999.90;999.90;;;;;;;;;;4956366;28;20266;-73
2023/01/02 03:39:34;;;;;;;1999.90;999.90;;;;;;;;;;4963426;28;20314;-73
2023/01/02 03:42:04;;;;;;;1999.90;999.90;;;;;;;;;;4960672;28;20314;-73
2023/01/02 03:44:35;;;;;;;1999.90;999.90;;;;;;;;;;4960063;28;20231;-73
2023/01/02 03:47:08;;;;;;;1999.90;999.90;;;;;;;;;;4960638;28;20243;-73
2023/01/02 03:49:38;;;;;;;1999.90;999.90;;;;;;;;;;4944550;28;20254;-72
2023/01/02 03:52:07;;;;;;;1999.90;999.90;;;;;;;;;;4943767;28;20235;-73
2023/01/02 03:54:35;;;;;;;1999.90;999.90;;;;;;;;;;4960772;28;20314;-73
2023/01/02 03:57:04;;;;;;;1999.90;999.90;;;;;;;;;;4958088;28;20264;-72
2023/01/02 03:59:36;;;;;;;1999.90;999.90;;;;;;;;;;4957248;28;20923;-73
2023/01/02 04:02:09;;;;;;;1999.90;999.90;;;;;;;;;;4957976;28;20239;-73
2023/01/02 04:04:40;;;;;;;1999.90;999.90;;;;;;;;;;4964880;28;20322;-73
2023/01/02 04:07:18;;;;;;;1999.90;999.90;;;;;;;;;;4962208;28;20234;-75
2023/01/02 04:09:47;;;;;;;1999.90;999.90;;;;;;;;;;4965078;28;20251;-73
2023/01/02 04:12:19;;;;;;;1999.90;999.90;;;;;;;;;;4965833;28;20259;-73
2023/01/02 04:14:49;;;;;;;1999.90;999.90;;;;;;;;;;4957364;28;20233;-73
2023/01/02 04:17:19;;;;;;;1999.90;999.90;;;;;;;;;;4953064;28;20235;-73
2023/01/02 04:19:49;;;;;;;1999.90;999.90;;;;;;;;;;4968847;28;20231;-73
2023/01/02 04:22:18;;;;;;;1999.90;999.90;;;;;;;;;;4967824;28;20330;-73
2023/01/02 04:24:50;;;;;;;1999.90;999.90;;;;;;;;;;4967504;28;20239;-72
2023/01/02 04:27:20;;;;;;;1999.90;999.90;;;;;;;;;;4965881;28;20239;-72
2023/01/02 04:29:48;;;;;;;1999.90;999.90;;;;;;;;;;4965611;28;20788;-73
2023/01/02 04:32:20;;;;;;;1999.90;999.90;;;;;;;;;;4969736;28;20302;-72
2023/01/02 04:34:48;;;;;;;1999.90;999.90;;;;;;;;;;4988656;28;20236;-73
2023/01/02 04:37:26;;;;;;;1999.90;999.90;;;;;;;;;;4966720;28;22409;-73
2023/01/02 04:39:56;;;;;;;1999.90;999.90;;;;;;;;;;4963932;28;20239;-73
2023/01/02 04:42:24;;;;;;;1999.90;999.90;;;;;;;;;;4963961;28;20314;-73
2023/01/02 04:44:52;;;;;;;1999.90;999.90;;;;;;;;;;4965859;28;20240;-72
2023/01/02 04:47:22;;;;;;;1999.90;999.90;;;;;;;;;;4946036;28;20231;-73
2023/01/02 04:49:49;;;;;;;1999.90;999.90;;;;;;;;;;4964782;28;20671;-73
2023/01/02 04:52:17;;;;;;;1999.90;999.90;;;;;;;;;;4965765;28;20239;-73
2023/01/02 04:54:45;;;;;;;1999.90;999.90;;;;;;;;;;4967965;28;21055;-73
2023/01/02 04:57:13;;;;;;;1999.90;999.90;;;;;;;;;;4962849;28;20998;-73
2023/01/02 04:59:42;;;;;;;1999.90;999.90;;;;;;;;;;4964970;28;20687;-73
2023/01/02 05:02:10;;;;;;;1999.90;999.90;;;;;;;;;;4959331;28;20736;-73
2023/01/02 05:04:39;;;;;;;1999.90;999.90;;;;;;;;;;4965399;28;20231;-74
2023/01/02 05:07:08;;;;;;;1999.90;999.90;;;;;;;;;;4947067;28;20306;-74
2023/01/02 05:09:35;;;;;;;1999.90;999.90;;;;;;;;;;4983262;28;20841;-73
2023/01/02 05:12:04;;;;;;;1999.90;999.90;;;;;;;;;;4964353;28;20310;-73
2023/01/02 05:14:31;;;;;;;1999.90;999.90;;;;;;;;;;4964061;28;20231;-73
2023/01/02 05:16:59;;;;;;;1999.90;999.90;;;;;;;;;;4962646;28;20628;-73
2023/01/02 05:19:27;;;;;;;1999.90;999.90;;;;;;;;;;4964809;28;21149;-72
2023/01/02 05:24:42;;;;;;;1999.90;999.90;;;;;;;;;;4966540;28;20342;-72
2023/01/02 05:27:10;;;;;;;1999.90;999.90;;;;;;;;;;4966119;28;20629;-72
2023/01/02 05:29:38;;;;;;;1999.90;999.90;;;;;;;;;;4947769;28;20231;-72
2023/01/02 05:32:06;;;;;;;1999.90;999.90;;;;;;;;;;4957347;28;20275;-72
2023/01/02 05:34:34;;;;;;;1999.90;999.90;;;;;;;;;;4944815;28;20596;-72
2023/01/02 05:37:03;;;;;;;1999.90;999.90;;;;;;;;;;4962220;28;20779;-72
2023/01/02 05:39:31;;;;;;;1999.90;999.90;;;;;;;;;;4962768;28;20300;-73
2023/01/02 05:41:59;;;;;;;1999.90;999.90;;;;;;;;;;4953045;28;20239;-73
2023/01/02 05:44:27;;;;;;;1999.90;999.90;;;;;;;;;;4964796;28;20793;-73
2023/01/02 05:46:55;;;;;;;1999.90;999.90;;;;;;;;;;4945498;28;20864;-73
2023/01/02 05:49:23;;;;;;;1999.90;999.90;;;;;;;;;;4978567;28;20233;-73
2023/01/02 05:51:51;;;;;;;1999.90;999.90;;;;;;;;;;4949514;28;20318;-72
2023/01/02 05:54:21;;;;;;;1999.90;999.90;;;;;;;;;;4966359;28;20235;-73
2023/01/02 05:56:49;;;;;;;1999.90;999.90;;;;;;;;;;4964215;28;20251;-73
2023/01/02 05:59:17;;;;;;;1999.90;999.90;;;;;;;;;;4958981;28;20322;-73
2023/01/02 06:01:45;;;;;;;1999.90;999.90;;;;;;;;;;5016168;22;20244;-73
2023/01/02 06:04:13;;;;;;;1999.90;999.90;;;;;;;;;;5019477;28;20239;-75
2023/01/02 06:06:48;;;;;;;1999.90;999.90;;;;;;;;;;5010948;28;20232;-75
2023/01/02 06:09:16;;;;;;;1999.90;999.90;;;;;;;;;;5021425;28;20238;-76
2023/01/02 06:11:46;;;;;;;1999.90;999.90;;;;;;;;;;5002501;28;20230;-75
2023/01/02 06:14:13;;;;;;;1999.90;999.90;;;;;;;;;;4978442;28;20815;-76
2023/01/02 06:16:41;;;;;;;1999.90;999.90;;;;;;;;;;4989148;28;20234;-73
2023/01/02 06:19:09;;;;;;;1999.90;999.90;;;;;;;;;;5004737;28;20341;-73
2023/01/02 06:21:37;;;;;;;1999.90;999.90;;;;;;;;;;5010232;28;20234;-73
2023/01/02 06:24:05;;;;;;;1999.90;999.90;;;;;;;;;;5019991;28;20226;-73
2023/01/02 06:26:33;;;;;;;1999.90;999.90;;;;;;;;;;5019566;28;20222;-74
2023/01/02 06:29:04;;;;;;;1999.90;999.90;;;;;;;;;;5026763;28;20244;-74
2023/01/02 06:31:32;;;;;;;1999.90;999.90;;;;;;;;;;5018625;28;20261;-74
2023/01/02 06:34:01;;;;;;;1999.90;999.90;;;;;;;;;;5010430;28;20218;-73
2023/01/02 06:36:29;;;;;;;1999.90;999.90;;;;;;;;;;5007638;28;20242;-74
2023/01/02 06:38:58;;;;;;;1999.90;999.90;;;;;;;;;;5004027;28;20242;-75
2023/01/02 06:41:26;;;;;;;1999.90;999.90;;;;;;;;;;5000843;28;20238;-73
2023/01/02 06:43:54;;;;;;;1999.90;999.90;;;;;;;;;;5003414;28;21568;-74
2023/01/02 06:46:23;;;;;;;1999.90;999.90;;;;;;;;;;5002882;28;20252;-73
2023/01/02 06:48:52;;;;;;;1999.90;999.90;;;;;;;;;;5003754;28;20791;-74
2023/01/02 06:51:21;;;;;;;1999.90;999.90;;;;;;;;;;5009517;28;20238;-76
2023/01/02 06:53:49;;;;;;;1999.90;999.90;;;;;;;;;;4996592;28;21620;-74
2023/01/02 06:56:18;;;;;;;1999.90;999.90;;;;;;;;;;5004029;28;20714;-72
2023/01/02 06:58:45;;;;;;;1999.90;999.90;;;;;;;;;;5015260;28;20682;-74
2023/01/02 07:01:14;;;;;;;1999.90;999.90;;;;;;;;;;4998874;28;20531;-74
2023/01/02 07:03:43;;;;;;;1999.90;999.90;;;;;;;;;;4995167;28;20516;-74
2023/01/02 07:06:12;;;;;;;1999.90;999.90;;;;;;;;;;5000582;28;20758;-73
2023/01/02 07:08:40;;;;;;;1999.90;999.90;;;;;;;;;;4984355;28;20948;-73
2023/01/02 07:11:10;;;;;;;1999.90;999.90;;;;;;;;;;5000150;28;20858;-73
2023/01/02 07:13:38;;;;;;;1999.90;999.90;;;;;;;;;;5002953;28;20532;-74
2023/01/02 07:16:07;;;;;;;1999.90;999.90;;;;;;;;;;5001282;28;20458;-75
2023/01/02 07:18:35;;;;;;;1999.90;999.90;;;;;;;;;;4997614;28;20732;-75
2023/01/02 07:21:05;;;;;;;1999.90;999.90;;;;;;;;;;4997837;28;20281;-72
2023/01/02 07:23:33;;;;;;;1999.90;999.90;;;;;;;;;;4998866;28;20236;-73
2023/01/02 07:26:02;;;;;;;1999.90;999.90;;;;;;;;;;4983944;28;20240;-75
2023/01/02 07:28:30;;;;;;;1999.90;999.90;;;;;;;;;;4982567;28;20347;-74
2023/01/02 07:30:59;;;;;;;1999.90;999.90;;;;;;;;;;4994052;28;20739;-75
2023/01/02 07:33:28;;;;;;;1999.90;999.90;;;;;;;;;;4987906;28;20237;-74
2023/01/02 07:35:57;;;;;;;1999.90;999.90;;;;;;;;;;4998856;28;20773;-74
2023/01/02 07:38:27;;;;;;;1999.90;999.90;;;;;;;;;;4997875;28;20262;-74
2023/01/02 07:40:55;;;;;;;1999.90;999.90;;;;;;;;;;4999209;28;20308;-74
2023/01/02 07:43:23;;;;;;;1999.90;999.90;;;;;;;;;;4980608;28;20637;-75
2023/01/02 07:45:50;;;;;;;1999.90;999.90;;;;;;;;;;5002139;28;20237;-74
2023/01/02 07:48:19;;;;;;;1999.90;999.90;;;;;;;;;;4983835;28;20229;-73
2023/01/02 07:50:47;;;;;;;1999.90;999.90;;;;;;;;;;4999395;28;20242;-75
2023/01/02 07:53:15;;;;;;;1999.90;999.90;;;;;;;;;;4985743;28;20225;-72
2023/01/02 07:55:44;;;;;;;1999.90;999.90;;;;;;;;;;5006879;28;20230;-73
2023/01/02 07:58:12;;;;;;;1999.90;999.90;;;;;;;;;;5021354;28;20230;-75
2023/01/02 08:00:40;;;;;;;1999.90;999.90;;;;;;;;;;5005430;28;20242;-76
2023/01/02 08:03:08;;;;;;;1999.90;999.90;;;;;;;;;;5004378;28;20257;-76
2023/01/02 08:05:36;;;;;;;1999.90;999.90;;;;;;;;;;5003769;28;20349;-75
2023/01/02 08:08:04;;;;;;;1999.90;999.90;;;;;;;;;;5005982;28;20755;-75
2023/01/02 08:10:32;;;;;;;1999.90;999.90;;;;;;;;;;5006115;28;20237;-74
2023/01/02 08:13:01;;;;;;;1999.90;999.90;;;;;;;;;;5006171;28;20333;-77
2023/01/02 08:15:29;;;;;;;1999.90;999.90;;;;;;;;;;5013118;28;20325;-75
2023/01/02 08:17:57;;;;;;;1999.90;999.90;;;;;;;;;;5007067;28;20229;-74
2023/01/02 08:20:25;;;;;;;1999.90;999.90;;;;;;;;;;5004140;28;20265;-75
2023/01/02 08:22:55;;;;;;;1999.90;999.90;;;;;;;;;;5007294;28;20715;-75
2023/01/02 08:25:23;;;;;;;1999.90;999.90;;;;;;;;;;5009139;28;20234;-76
2023/01/02 08:27:51;;;;;;;1999.90;999.90;;;;;;;;;;4990359;28;20321;-76
2023/01/02 08:30:20;;;;;;;1999.90;999.90;;;;;;;;;;5008430;28;20234;-76
2023/01/02 08:32:48;;;;;;;1999.90;999.90;;;;;;;;;;5014715;28;20242;-76
2023/01/02 08:35:16;;;;;;;1999.90;999.90;;;;;;;;;;5007711;28;21188;-75
2023/01/02 08:37:44;;;;;;;1999.90;999.90;;;;;;;;;;5007048;28;20265;-75
2023/01/02 08:40:18;;;;;;;1999.90;999.90;;;;;;;;;;5003840;28;20357;-74
2023/01/02 08:42:46;;;;;;;1999.90;999.90;;;;;;;;;;5002554;28;20232;-73
2023/01/02 08:45:14;;;;;;;1999.90;999.90;;;;;;;;;;5003345;28;20234;-73
2023/01/02 08:47:43;;;;;;;1999.90;999.90;;;;;;;;;;5005045;28;20240;-74
2023/01/02 08:50:11;;;;;;;1999.90;999.90;;;;;;;;;;4991193;28;20234;-75
2023/01/02 08:52:39;;;;;;;1999.90;999.90;;;;;;;;;;4988541;28;20321;-74
2023/01/02 08:55:08;;;;;;;1999.90;999.90;;;;;;;;;;5022026;28;20229;-74
2023/01/02 08:57:35;;;;;;;1999.90;999.90;;;;;;;;;;5006724;28;20257;-75
2023/01/02 09:00:03;;;;;;;1999.90;999.90;;;;;;;;;;5006549;28;20304;-75
2023/01/02 09:02:31;;;;;;;1999.90;999.90;;;;;;;;;;5023940;28;21101;-75
2023/01/02 09:05:01;;;;;;;1999.90;999.90;;;;;;;;;;5022413;28;20720;-75
2023/01/02 09:07:31;;;;;;;1999.90;999.90;;;;;;;;;;5027330;28;20230;-75
2023/01/02 09:09:59;;;;;;;1999.90;999.90;;;;;;;;;;5028081;28;20238;-76
2023/01/02 09:12:27;;;;;;;1999.90;999.90;;;;;;;;;;5042119;28;20276;-76
2023/01/02 09:14:55;;;;;;;1999.90;999.90;;;;;;;;;;5045347;28;20222;-76
2023/01/02 09:17:23;;;;;;;1999.90;999.90;;;;;;;;;;5009225;28;20236;-77
2023/01/02 09:19:51;;;;;;;1999.90;999.90;;;;;;;;;;5005526;28;20242;-76
2023/01/02 09:22:20;;;;;;;1999.90;999.90;;;;;;;;;;4991594;28;20241;-74
2023/01/02 09:24:48;;;;;;;1999.90;999.90;;;;;;;;;;5004758;28;20237;-76
2023/01/02 09:27:16;;;;;;;1999.90;999.90;;;;;;;;;;4986487;28;20226;-76
2023/01/02 09:29:44;;;;;;;1999.90;999.90;;;;;;;;;;5021325;28;20298;-75
2023/01/02 09:32:12;;;;;;;1999.90;999.90;;;;;;;;;;5004526;28;20233;-75
2023/01/02 09:34:40;;;;;;;1999.90;999.90;;;;;;;;;;4998436;28;20649;-75
2023/01/02 09:37:08;;;;;;;1999.90;999.90;;;;;;;;;;5003899;28;20258;-75
2023/01/02 09:39:38;;;;;;;1999.90;999.90;;;;;;;;;;5001346;28;20260;-74
2023/01/02 09:42:12;;;;;;;1999.90;999.90;;;;;;;;;;5005380;28;20226;-76
2023/01/02 09:44:41;;;;;;;1999.90;999.90;;;;;;;;;;5023521;28;20230;-72
2023/01/02 09:47:14;;;;;;;1999.90;999.90;;;;;;;;;;5024393;28;20317;-74
2023/01/02 09:49:43;;;;;;;1999.90;999.90;;;;;;;;;;4999683;28;21319;-75
2023/01/02 09:52:13;;;;;;;1999.90;999.90;;;;;;;;;;4997776;28;20237;-74
2023/01/02 09:54:43;;;;;;;1999.90;999.90;;;;;;;;;;4999193;28;20313;-73
2023/01/02 09:57:16;;;;;;;1999.90;999.90;;;;;;;;;;5000129;28;20233;-74
2023/01/02 09:59:48;;;;;;;1999.90;999.90;;;;;;;;;;5001080;28;20265;-74
2023/01/02 10:02:29;;;;;;;1999.90;999.90;;;;;;;;;;4996958;28;20281;-74
2023/01/02 10:05:04;;;;;;;1999.90;999.90;;;;;;;;;;4997377;28;20237;-73
2023/01/02 10:07:36;;;;;;;1999.90;999.90;;;;;;;;;;5000147;28;20325;-73
2023/01/02 10:10:08;;;;;;;1999.90;999.90;;;;;;;;;;4996616;28;20272;-73
2023/01/02 10:12:37;;;;;;;1999.90;999.90;;;;;;;;;;4990034;28;20226;-76
2023/01/02 10:15:10;;;;;;;1999.90;999.90;;;;;;;;;;4999189;28;20230;-75
2023/01/02 10:17:42;;;;;;;1999.90;999.90;;;;;;;;;;5005960;28;20285;-74
2023/01/02 10:20:17;;;;;;;1999.90;999.90;;;;;;;;;;5019033;28;20265;-75
2023/01/02 10:22:53;;;;;;;1999.90;999.90;;;;;;;;;;5016254;28;20258;-73
2023/01/02 10:25:24;;;;;;;1999.90;999.90;;;;;;;;;;4981177;28;20272;-76
2023/01/02 10:27:53;;;;;;;1999.90;999.90;;;;;;;;;;4982319;28;20324;-74
2023/01/02 10:30:23;;;;;;;1999.90;999.90;;;;;;;;;;5003264;28;20238;-75
2023/01/02 10:32:55;;;;;;;1999.90;999.90;;;;;;;;;;5019903;28;20241;-75
2023/01/02 10:35:29;;;;;;;1999.90;999.90;;;;;;;;;;5002209;28;21060;-73
2023/01/02 10:37:57;;;;;;;1999.90;999.90;;;;;;;;;;4997470;28;20229;-71
2023/01/02 10:40:26;;;;;;;1999.90;999.90;;;;;;;;;;5002432;28;20242;-70
2023/01/02 10:42:56;;;;;;;1999.90;999.90;;;;;;;;;;4999564;28;20246;-74
2023/01/02 10:45:27;;;;;;;1999.90;999.90;;;;;;;;;;4998433;28;20677;-72
2023/01/02 10:47:55;;;;;;;1999.90;999.90;;;;;;;;;;5000531;28;20253;-74
2023/01/02 10:50:25;;;;;;;1999.90;999.90;;;;;;;;;;4999075;28;20763;-74
2023/01/02 10:52:54;;;;;;;1999.90;999.90;;;;;;;;;;5000993;28;20234;-74
2023/01/02 10:55:30;;;;;;;1999.90;999.90;;;;;;;;;;4999247;28;20313;-71
2023/01/02 10:58:02;;;;;;;1999.90;999.90;;;;;;;;;;4996881;28;20229;-75
2023/01/02 11:00:31;;;;;;;1999.90;999.90;;;;;;;;;;4988039;28;20324;-72
2023/01/02 11:03:00;;;;;;;1999.90;999.90;;;;;;;;;;4979385;28;20229;-78
2023/01/02 11:05:30;;;;;;;1999.90;999.90;;;;;;;;;;5001337;28;20280;-75
2023/01/02 11:07:58;;;;;;;1999.90;999.90;;;;;;;;;;5004157;28;20739;-76
2023/01/02 11:10:28;;;;;;;1999.90;999.90;;;;;;;;;;5001809;28;20252;-76
2023/01/02 11:13:01;;;;;;;1999.90;999.90;;;;;;;;;;4994795;28;20244;-76
2023/01/02 11:15:33;;;;;;;1999.90;999.90;;;;;;;;;;5016900;28;20237;-76
2023/01/02 11:18:02;;;;;;;1999.90;999.90;;;;;;;;;;4983913;28;20234;-77
2023/01/02 11:20:31;;;;;;;1999.90;999.90;;;;;;;;;;5001274;28;20746;-75
2023/01/02 11:23:01;;;;;;;1999.90;999.90;;;;;;;;;;4987557;28;20532;-77
2023/01/02 11:25:36;;;;;;;1999.90;999.90;;;;;;;;;;4978742;28;20686;-78
2023/01/02 11:28:05;;;;;;;1999.90;999.90;;;;;;;;;;5014085;28;20241;-77
2023/01/02 11:30:35;;;;;;;1999.90;999.90;;;;;;;;;;5001966;28;20332;-76
2023/01/02 11:33:08;;;;;;;1999.90;999.90;;;;;;;;;;4988221;28;20276;-75
2023/01/02 11:35:37;;;;;;;1999.90;999.90;;;;;;;;;;4987992;28;20222;-77
2023/01/02 11:38:12;;;;;;;1999.90;999.90;;;;;;;;;;4990267;28;20230;-77
2023/01/02 11:40:53;;;;;;;1999.90;999.90;;;;;;;;;;5004544;28;20708;-77
2023/01/02 11:46:16;;;;;;;1999.90;999.90;;;;;;;;;;4982282;28;20320;-78
2023/01/02 11:48:44;;;;;;;1999.90;999.90;;;;;;;;;;5018605;28;20236;-76
2023/01/02 11:51:15;;;;;;;1999.90;999.90;;;;;;;;;;5007110;28;20312;-77
2023/01/02 11:53:46;;;;;;;1999.90;999.90;;;;;;;;;;5011777;28;20975;-77
2023/01/02 11:56:16;;;;;;;1999.90;999.90;;;;;;;;;;5039608;28;20716;-76
2023/01/02 11:58:48;;;;;;;1999.90;999.90;;;;;;;;;;5041242;28;20985;-77
2023/01/02 12:01:19;;;;;;;1999.90;999.90;;;;;;;;;;5036043;28;20341;-78
2023/01/02 12:03:48;;;;;;;1999.90;999.90;;;;;;;;;;5025786;28;20228;-76
2023/01/02 12:06:17;;;;;;;1999.90;999.90;;;;;;;;;;5025023;28;20230;-76
2023/01/02 12:08:52;;;;;;;1999.90;999.90;;;;;;;;;;5009171;28;20236;-77
2023/01/02 12:11:24;;;;;;;1999.90;999.90;;;;;;;;;;4999022;28;20754;-77
2023/01/02 12:13:57;;;;;;;1999.90;999.90;;;;;;;;;;4997458;28;20270;-77
2023/01/02 12:16:35;;;;;;;1999.90;999.90;;;;;;;;;;4994105;28;20270;-77
2023/01/02 12:19:15;;;;;;;1999.90;999.90;;;;;;;;;;4998955;28;21188;-77
2023/01/02 12:21:49;;;;;;;1999.90;999.90;;;;;;;;;;4984977;28;20270;-76
2023/01/02 12:24:35;;;;;;;1999.90;999.90;;;;;;;;;;4989298;28;20254;-76
2023/01/02 12:27:07;;;;;;;1999.90;999.90;;;;;;;;;;4996859;28;20236;-75
2023/01/02 12:29:51;;;;;;;1999.90;999.90;;;;;;;;;;5001579;28;20238;-76
2023/01/02 12:32:27;;;;;;;1999.90;999.90;;;;;;;;;;5000595;28;20233;-76
2023/01/02 12:35:03;;;;;;;1999.90;999.90;;;;;;;;;;5000754;28;20342;-76
2023/01/02 12:37:39;;;;;;;1999.90;999.90;;;;;;;;;;4991609;28;21062;-76
2023/01/02 12:40:27;;;;;;;1999.90;999.90;;;;;;;;;;5004870;28;20233;-76
2023/01/02 12:43:02;;;;;;;1999.90;999.90;;;;;;;;;;5017418;28;21003;-76
2023/01/02 12:45:36;;;;;;;1999.90;999.90;;;;;;;;;;4981145;28;20244;-76
2023/01/02 12:48:09;;;;;;;1999.90;999.90;;;;;;;;;;4999595;28;20240;-76
2023/01/02 12:50:47;;;;;;;1999.90;999.90;;;;;;;;;;5000848;28;20228;-76
2023/01/02 12:53:21;;;;;;;1999.90;999.90;;;;;;;;;;5019352;28;20235;-76
2023/01/02 12:55:52;;;;;;;1999.90;999.90;;;;;;;;;;4998302;28;20225;-76
2023/01/02 12:58:27;;;;;;;1999.90;999.90;;;;;;;;;;5003026;28;20226;-77
2023/01/02 13:01:07;;;;;;;1999.90;999.90;;;;;;;;;;5017403;28;20241;-77
2023/01/02 13:03:45;;;;;;;1999.90;999.90;;;;;;;;;;4985534;28;20779;-76
2023/01/02 13:06:16;;;;;;;1999.90;999.90;;;;;;;;;;5003683;28;20234;-80
2023/01/02 13:09:06;;;;;;;1999.90;999.90;;;;;;;;;;5000638;28;20234;-76
2023/01/02 13:11:37;;;;;;;1999.90;999.90;;;;;;;;;;4999275;28;20328;-75
2023/01/02 13:14:06;;;;;;;1999.90;999.90;;;;;;;;;;4975296;28;20335;-77
2023/01/02 13:16:36;;;;;;;1999.90;999.90;;;;;;;;;;5002167;28;20237;-76
2023/01/02 13:19:15;;;;;;;1999.90;999.90;;;;;;;;;;5001044;28;20237;-74
2023/01/02 13:21:46;;;;;;;1999.90;999.90;;;;;;;;;;4993026;28;20248;-76
2023/01/02 13:24:16;;;;;;;1999.90;999.90;;;;;;;;;;5016549;28;20642;-75
2023/01/02 13:26:44;;;;;;;1999.90;999.90;;;;;;;;;;5004282;28;20357;-75
2023/01/02 13:29:20;;;;;;;1999.90;999.90;;;;;;;;;;4981900;28;20799;-76
2023/01/02 13:31:51;;;;;;;1999.90;999.90;;;;;;;;;;5016233;28;20230;-75
2023/01/02 13:34:21;;;;;;;1999.90;999.90;;;;;;;;;;4998972;28;21212;-75
2023/01/02 13:36:51;;;;;;;1999.90;999.90;;;;;;;;;;4980001;28;20233;-73
2023/01/02 13:39:20;;;;;;;1999.90;999.90;;;;;;;;;;4977073;28;20285;-74
2023/01/02 13:44:37;;;;;;;1999.90;999.90;;;;;;;;;;4999039;28;20321;-75
2023/01/02 13:47:13;;;;;;;1999.90;999.90;;;;;;;;;;4988177;28;20716;-74
2023/01/02 13:49:57;;;;;;;1999.90;999.90;;;;;;;;;;4996508;28;20234;-74
2023/01/02 13:52:25;;;;;;;1999.90;999.90;;;;;;;;;;4994445;28;20236;-74
2023/01/02 13:55:30;;;;;;;1999.90;999.90;;;;;;;;;;4997009;28;21031;-75
2023/01/02 13:58:17;;;;;;;1999.90;999.90;;;;;;;;;;5013190;28;20240;-75
2023/01/02 14:00:47;;;;;;;1999.90;999.90;;;;;;;;;;4995750;28;20739;-74
2023/01/02 14:03:37;;;;;;;1999.90;999.90;;;;;;;;;;4997567;28;20233;-74
2023/01/02 14:06:06;;;;;;;1999.90;999.90;;;;;;;;;;4994557;28;20245;-75
2023/01/02 14:08:36;;;;;;;1999.90;999.90;;;;;;;;;;4983647;28;20759;-74